Kosciusko, MS

11:53 PM EST on February 28, 2015 (GMT -0500)
Sherwood Heights | Change Station
CLOSE
Current Station
Personal Weather Station
Location: Asheville, NC
Elevation: 2497 ft
Nearby Weather Stations

Elev 2497 ft 35.65 °N, 82.55 °W | Updated 7 seconds ago

Overcast
Overcast
32.3 °F
Feels Like 32 °F
N
1.0
Wind Variable Wind from SW
Gusts 10.0 mph

Today
High -- | Low -- °F
--% Chance of Precip.
Yesterday
High -- | Low -- °F
Precip. -- in
7:01 AM 6:24 PM
Waxing Gibbous, 82% visible
Pressure 30.63 in
Visibility 10.0 miles
Clouds Overcast 10000 ft
Windchill 32 °F
Dew Point 23 °F
Humidity 68%
Rainfall 0.02 in
Snow Depth Not available.
UV 0 out of 12
Pollen 4.10 out of 12
Air Quality Not available.
Flu Activity Not available.
METAR KAVL 010354Z AUTO 19008KT 10SM OVC100 00/M06 A3059 RMK AO2 SLP373 T00001061

More Conditions Fewer Conditions

Pressure 30.63 in
Visibility 10.0 miles
Clouds Overcast 10000 ft
Windchill 32 °F
Dew Point 23 °F
Humidity 68%
Rainfall 0.02 in
Snow Depth Not available.
UV 0 out of 12
Pollen 4.10 out of 12
Air Quality Not available.
Flu Activity Not available.
METAR KAVL 010354Z AUTO 19008KT 10SM OVC100 00/M06 A3059 RMK AO2 SLP373 T00001061

More Conditions Fewer Conditions

10-Day Weather Forecast

Almanac

Astronomy

Feb. 28, 2015 Rise Set
Actual Time
Civil Twilight
Nautical Twilight
Astronomical Twilight
Moon
Length of Visible Light
Length of Day
Tomorrow will be .
, % of the Moon is Illuminated

Today's Extremes

State Highs State Lows

Community

WunderPhotos

Upload Photos

1,801,320 photos uploaded!

WunderBlogs® & News

Nearby

Air Quality

  Air Quality AQ Index Pollutant
Not available.

Snow Depth

Station Depth Elevation

Earthquake Activity

City Distance Mag. Time & Date
Minimum magnitude displayed is 2.5.

Coastal Water Temperatures

Place Temperature

Nearby Weather Stations